Archival Weather

Norman Y Mineta San Jose Intl

San Jose, California (KSJC)

Report from: Wednesday, February 21, 2024 3:53 PM PST
Current time: Monday, June 17, 2024 1:24 AM PDT

Current weather – Weather history – Daily summaries
Weather forecast

Temperature15.6°C (60.1°F)
Dew point7.2°C (45.0°F)
Winds 11 kts (5.7 m/s, 12.7 mph) North-Northwest (330°)
Visibility10 mi. (16.1 km)
Clouds Few clouds 2,000 ft. (610 m)
Scattered clouds with towering cumulus 4,600 ft. (1,402 m)
Ceiling: Broken clouds 7,000 ft. (2,134 m)
Altimeter30.17 in.Hg (1022 mB)
Relative humidity57 %
Density altitude-63 ft. (-19 m)
Sea-level pressure102.2 kPa (1022 mB, 30.17 in.Hg)
Max temp last 6 hours18.9°C (66.0°F)
Min temp last 6 hours11.7°C (53.1°F)
Remarks Automated weather observing station with precipitation discriminator
Pressure falling, then rising
Flight conditions Visual Meteorological Conditions
Raw dataKSJC 212353Z 33011KT 10SM FEW020 SCT046TCU BKN070 16/07 A3017 RMK AO2 SLP216 T01560072 10189 20117 55005
An error has occurred. This application may no longer respond until reloaded. Reload 🗙